Strona główna
METAR-TAF:

METAR-TAF

Lotnisko :

Flemingsburg, Kentucky, Stany Zjednoczone

Szerokość geograficzna: 38-32-30N, Długość geograficzna: 083-44-36W, wysokość: 278 m

Aktualna obserwacja pogody

Raport powstał 33 minut temu, godzina 12:35 UTC
Wiatr 11 kt od południe w porywach dochodzący do 15 kt
Temperatura 5°C
Wilgotność 65%
Ciśnienie 1018 hPa
Widzialność: 16.1 km
Przerywane chmury na wysokości 3700 ft
Zachmurzenie całkowite na wysokości 4300 ft

METAR: KFGX 181235Z AUTO 18011G15KT 10SM BKN037 OVC043 05/M01 A3005 RMK AO2 T00451015

czas: 08:08 (13:08 UTC)


TAF: brakujący

Obserwacja i prognoza pogody dla ponad 4000 lotnisk (raport METAR i TAF).

Dostępne stacje oznaczono żółtymi i czerwonymi punktami na mapie.

Najedź kursorem aby zobaczyć nazwę stacji.

Kliknij aby zobaczyć obserwacje i prognozy pogody.

Aby zmienić mapę: kliknij na zielony przycisk z czarnym krzyżykiem, aby powiększyć; na zielony przycisk z myślnikiem, aby pomniejszyć; na zielone strzałki, aby przejść do map sąsiednich.


METAR-TAF: